createdAt,value
2023-05-19T00:01:15.123Z,9.60
2023-05-19T00:03:52.625Z,9.60
2023-05-19T00:06:25.984Z,9.50
2023-05-19T00:08:58.756Z,9.50
2023-05-19T00:11:28.284Z,9.50
2023-05-19T00:14:00.252Z,9.50
2023-05-19T00:16:30.234Z,9.40
2023-05-19T00:19:00.110Z,9.40
2023-05-19T00:21:29.873Z,9.30
2023-05-19T00:23:59.257Z,9.30
2023-05-19T00:26:28.688Z,9.30
2023-05-19T00:29:04.934Z,9.20
2023-05-19T00:31:34.140Z,9.20
2023-05-19T00:34:03.169Z,9.20
2023-05-19T00:36:31.799Z,9.20
2023-05-19T00:39:00.602Z,9.10
2023-05-19T00:41:30.107Z,9.10
2023-05-19T00:43:59.017Z,9.10
2023-05-19T00:46:30.360Z,9.00
2023-05-19T00:48:59.035Z,9.00
2023-05-19T00:51:29.698Z,9.00
2023-05-19T00:53:59.211Z,8.90
2023-05-19T00:56:28.364Z,8.90
2023-05-19T00:58:57.082Z,8.80
2023-05-19T01:01:26.864Z,8.80
2023-05-19T01:03:59.020Z,8.80
2023-05-19T01:06:29.692Z,8.80
2023-05-19T01:08:58.412Z,8.70
2023-05-19T01:11:27.053Z,8.70
2023-05-19T01:13:56.394Z,8.60
2023-05-19T01:16:32.164Z,8.60
2023-05-19T01:19:15.041Z,8.60
2023-05-19T01:22:23.027Z,8.50
2023-05-19T01:25:20.712Z,8.50
2023-05-19T01:28:31.678Z,8.50
2023-05-19T01:31:04.139Z,8.50
2023-05-19T01:33:34.550Z,8.40
2023-05-19T01:36:05.072Z,8.40
2023-05-19T01:38:35.409Z,8.40
2023-05-19T01:41:06.450Z,8.30
2023-05-19T01:43:37.345Z,8.30
2023-05-19T01:46:09.605Z,8.30
2023-05-19T01:48:38.274Z,8.20
2023-05-19T01:51:07.146Z,8.20
2023-05-19T01:53:36.078Z,8.20
2023-05-19T01:56:05.093Z,8.20
2023-05-19T01:58:41.109Z,8.10
2023-05-19T02:01:22.806Z,8.10
2023-05-19T02:04:08.627Z,8.10
2023-05-19T02:06:43.333Z,8.10
2023-05-19T02:09:19.720Z,8.10
2023-05-19T02:11:55.622Z,8.10
2023-05-19T02:14:37.809Z,8.10
2023-05-19T02:17:07.916Z,8.10
2023-05-19T02:19:39.315Z,8.10
2023-05-19T02:22:08.439Z,8.10
2023-05-19T02:24:37.706Z,8.10
2023-05-19T02:27:06.980Z,8.00
2023-05-19T02:29:36.192Z,8.00
2023-05-19T02:32:10.541Z,8.00
2023-05-19T02:34:42.193Z,8.00
2023-05-19T02:37:10.903Z,8.00
2023-05-19T02:39:39.431Z,7.90
2023-05-19T02:42:12.073Z,7.90
2023-05-19T02:44:40.742Z,7.90
2023-05-19T02:47:09.300Z,7.90
2023-05-19T02:49:37.892Z,7.90
2023-05-19T02:52:08.338Z,7.80
2023-05-19T02:54:36.977Z,7.80
2023-05-19T02:57:06.827Z,7.70
2023-05-19T02:59:35.504Z,7.70
2023-05-19T03:02:04.428Z,7.70
2023-05-19T03:04:33.103Z,7.70
2023-05-19T03:07:02.198Z,7.70
2023-05-19T03:09:33.369Z,7.60
2023-05-19T03:12:04.049Z,7.60
2023-05-19T03:14:34.943Z,7.60
2023-05-19T03:17:03.729Z,7.50
2023-05-19T03:19:32.628Z,7.50
2023-05-19T03:22:01.284Z,7.40
2023-05-19T03:24:30.333Z,7.50
2023-05-19T03:27:00.664Z,7.50
2023-05-19T03:29:29.362Z,7.40
2023-05-19T03:31:58.024Z,7.40
2023-05-19T03:34:27.983Z,7.40
2023-05-19T03:36:57.326Z,7.40
2023-05-19T03:39:26.291Z,7.30
2023-05-19T03:41:56.234Z,7.30
2023-05-19T03:44:26.326Z,7.30
2023-05-19T03:46:54.888Z,7.30
2023-05-19T03:49:41.976Z,7.30
2023-05-19T03:52:30.782Z,7.20
2023-05-19T03:55:08.930Z,7.20
2023-05-19T03:57:37.749Z,7.20
2023-05-19T04:00:11.250Z,7.10
2023-05-19T04:02:41.166Z,7.10
2023-05-19T04:05:10.505Z,7.10
2023-05-19T04:07:39.575Z,7.10
2023-05-19T04:10:09.392Z,7.20
2023-05-19T04:12:37.970Z,7.10
2023-05-19T04:15:11.427Z,7.10
2023-05-19T04:17:40.645Z,7.10
2023-05-19T04:20:09.998Z,7.20
2023-05-19T04:22:38.628Z,7.20
2023-05-19T04:25:08.826Z,7.20
2023-05-19T04:27:38.970Z,7.30
2023-05-19T04:30:10.722Z,7.30
2023-05-19T04:32:39.712Z,7.30
2023-05-19T04:35:09.112Z,7.40
2023-05-19T04:37:39.215Z,7.40
2023-05-19T04:40:11.187Z,7.50
2023-05-19T04:42:42.709Z,7.50
2023-05-19T04:45:13.987Z,7.50
2023-05-19T04:47:46.917Z,7.60
2023-05-19T04:50:16.905Z,7.60
2023-05-19T04:52:46.510Z,7.70
2023-05-19T04:55:17.245Z,7.60
2023-05-19T04:57:47.002Z,7.70
2023-05-19T05:00:18.851Z,7.70
2023-05-19T05:03:00.598Z,7.70
2023-05-19T05:05:31.788Z,7.80
2023-05-19T05:08:00.475Z,7.90
2023-05-19T05:10:32.597Z,7.90
2023-05-19T05:13:02.209Z,8.00
2023-05-19T05:15:33.586Z,8.00
2023-05-19T05:18:04.865Z,8.10
2023-05-19T05:20:34.564Z,8.10
2023-05-19T05:23:04.450Z,8.20
2023-05-19T05:25:35.262Z,8.30
2023-05-19T05:28:05.288Z,8.40
2023-05-19T05:30:36.349Z,8.50
2023-05-19T05:33:07.982Z,8.60
2023-05-19T05:35:39.939Z,8.80
2023-05-19T05:38:11.432Z,8.90
2023-05-19T05:40:40.536Z,9.20
2023-05-19T05:43:10.343Z,9.30
2023-05-19T05:45:47.177Z,9.60
2023-05-19T05:48:16.450Z,9.80
2023-05-19T05:50:46.469Z,10.00
2023-05-19T05:53:20.619Z,10.10
2023-05-19T05:55:54.523Z,10.30
2023-05-19T05:58:28.594Z,10.50
2023-05-19T06:00:58.703Z,10.70
2023-05-19T06:03:28.502Z,10.90
2023-05-19T06:06:00.428Z,11.00
2023-05-19T06:08:29.250Z,11.20
2023-05-19T06:10:58.306Z,11.40
2023-05-19T06:13:28.242Z,11.50
2023-05-19T06:16:00.554Z,11.60
2023-05-19T06:18:38.005Z,11.70
2023-05-19T06:21:07.111Z,11.90
2023-05-19T06:23:35.883Z,12.00
2023-05-19T06:26:06.567Z,12.10
2023-05-19T06:28:35.515Z,12.20
2023-05-19T06:31:06.015Z,12.30
2023-05-19T06:33:56.030Z,12.40
2023-05-19T06:36:25.560Z,12.60
2023-05-19T06:38:59.678Z,13.30
2023-05-19T06:41:32.404Z,13.50
2023-05-19T06:44:01.861Z,13.20
2023-05-19T06:46:38.652Z,13.20
2023-05-19T06:49:09.079Z,12.90
2023-05-19T06:51:42.019Z,13.00
2023-05-19T06:54:13.019Z,13.10
2023-05-19T06:56:44.216Z,13.10
2023-05-19T06:59:13.077Z,13.20
2023-05-19T07:01:43.557Z,13.20
2023-05-19T07:04:13.179Z,13.30
2023-05-19T07:06:42.619Z,14.30
2023-05-19T07:09:11.595Z,13.50
2023-05-19T07:11:41.766Z,13.40
2023-05-19T07:14:12.504Z,13.40
2023-05-19T07:16:42.974Z,13.60
2023-05-19T07:19:11.930Z,13.60
2023-05-19T07:21:42.435Z,13.60
2023-05-19T07:24:12.044Z,13.70
2023-05-19T07:26:41.494Z,14.10
2023-05-19T07:29:10.696Z,13.60
2023-05-19T07:31:43.886Z,14.30
2023-05-19T07:36:58.242Z,13.80
2023-05-19T07:39:29.670Z,13.90
2023-05-19T07:41:59.404Z,14.20
2023-05-19T07:44:28.445Z,13.90
2023-05-19T07:46:58.894Z,14.90
2023-05-19T07:49:28.123Z,13.90
2023-05-19T07:51:57.203Z,14.00
2023-05-19T07:57:22.286Z,13.70
2023-05-19T07:59:51.487Z,14.10
2023-05-19T08:02:24.923Z,14.20
2023-05-19T08:04:54.437Z,14.10
2023-05-19T08:07:26.715Z,14.20
2023-05-19T08:09:56.323Z,14.30
2023-05-19T08:12:25.775Z,14.50
2023-05-19T08:14:54.599Z,14.40
2023-05-19T08:17:27.441Z,14.40
2023-05-19T08:19:56.686Z,14.50
2023-05-19T08:22:30.975Z,14.50
2023-05-19T08:25:01.269Z,15.30
2023-05-19T08:27:30.361Z,14.60
2023-05-19T08:29:59.658Z,14.60
2023-05-19T08:32:34.266Z,15.40
2023-05-19T08:35:03.345Z,14.70
2023-05-19T08:37:34.086Z,14.90
2023-05-19T08:40:05.081Z,14.90
2023-05-19T08:42:35.920Z,15.00
2023-05-19T08:45:05.547Z,15.50
2023-05-19T08:47:35.979Z,15.10
2023-05-19T08:50:07.715Z,15.10
2023-05-19T08:52:49.568Z,15.20
2023-05-19T08:55:34.283Z,15.10
2023-05-19T08:58:07.045Z,15.30
2023-05-19T09:00:37.424Z,15.30
2023-05-19T09:03:18.273Z,15.40
2023-05-19T09:05:52.961Z,15.40
2023-05-19T09:08:22.739Z,15.50
2023-05-19T09:10:52.047Z,15.60
2023-05-19T09:13:21.107Z,15.60
2023-05-19T09:15:57.149Z,15.70
2023-05-19T09:18:28.211Z,15.70
2023-05-19T09:21:00.557Z,15.80
2023-05-19T09:23:31.827Z,15.90
2023-05-19T09:26:04.690Z,16.00
2023-05-19T09:28:35.447Z,16.20
2023-05-19T09:31:06.776Z,16.10
2023-05-19T09:33:37.818Z,16.20
2023-05-19T09:36:08.713Z,16.20
2023-05-19T09:43:14.259Z,16.40
2023-05-19T09:46:12.972Z,16.50
2023-05-19T09:48:44.962Z,16.50
2023-05-19T09:51:17.620Z,16.70
2023-05-19T09:53:48.126Z,16.60
2023-05-19T09:56:17.387Z,16.70
2023-05-19T09:58:47.082Z,16.80
2023-05-19T10:01:16.554Z,16.80
2023-05-19T10:03:51.714Z,16.80
2023-05-19T10:06:21.814Z,16.80
2023-05-19T10:08:52.967Z,16.90
2023-05-19T10:11:24.208Z,16.90
2023-05-19T10:13:53.405Z,17.00
2023-05-19T10:16:25.681Z,17.20
2023-05-19T10:18:59.567Z,17.40
2023-05-19T10:21:29.686Z,17.40
2023-05-19T10:23:58.695Z,17.60
2023-05-19T10:26:28.507Z,17.70
2023-05-19T10:28:58.528Z,17.80
2023-05-19T10:31:28.225Z,17.80
2023-05-19T10:34:15.553Z,17.80
2023-05-19T10:36:51.473Z,17.80
2023-05-19T10:39:27.998Z,17.90
2023-05-19T10:42:05.463Z,17.90
2023-05-19T10:44:46.319Z,18.00
2023-05-19T10:47:15.751Z,18.10
2023-05-19T10:49:46.835Z,18.20
2023-05-19T10:52:23.371Z,18.30
2023-05-19T10:54:54.716Z,18.50
2023-05-19T10:57:28.197Z,18.40
2023-05-19T10:59:57.646Z,18.40
2023-05-19T11:02:43.431Z,18.10
2023-05-19T11:05:16.638Z,18.20
2023-05-19T11:07:56.422Z,18.20
2023-05-19T11:10:25.884Z,18.20
2023-05-19T11:12:58.325Z,18.30
2023-05-19T11:15:28.658Z,18.40
2023-05-19T11:17:57.894Z,18.40
2023-05-19T11:20:29.784Z,18.40
2023-05-19T11:23:12.022Z,18.40
2023-05-19T11:25:45.674Z,18.50
2023-05-19T11:28:17.651Z,18.40
2023-05-19T11:30:50.462Z,18.70
2023-05-19T11:33:21.797Z,18.80
2023-05-19T11:35:52.714Z,18.80
2023-05-19T11:38:23.739Z,18.90
2023-05-19T11:40:54.970Z,18.90
2023-05-19T11:43:27.333Z,18.90
2023-05-19T11:45:57.025Z,18.80
2023-05-19T11:48:27.655Z,18.80
2023-05-19T11:50:58.189Z,18.90
2023-05-19T11:53:33.396Z,19.00
2023-05-19T11:56:05.292Z,19.10
2023-05-19T11:58:34.344Z,19.20
2023-05-19T12:01:06.347Z,19.20
2023-05-19T12:03:35.998Z,19.30
2023-05-19T12:06:08.568Z,19.40
2023-05-19T12:08:38.610Z,19.50
2023-05-19T12:11:08.237Z,19.50
2023-05-19T12:13:37.767Z,19.60
2023-05-19T12:16:08.073Z,19.70
2023-05-19T12:18:39.305Z,19.70
2023-05-19T12:21:10.125Z,19.70
2023-05-19T12:23:40.050Z,19.70
2023-05-19T12:26:09.336Z,19.70
2023-05-19T12:28:38.087Z,19.70
2023-05-19T12:31:07.345Z,19.80
2023-05-19T12:33:36.043Z,19.90
2023-05-19T12:36:05.936Z,20.00
2023-05-19T12:38:37.343Z,20.00
2023-05-19T12:41:07.587Z,20.10
2023-05-19T12:43:37.680Z,20.20
2023-05-19T12:46:12.776Z,20.20
2023-05-19T12:48:42.627Z,20.30
2023-05-19T12:51:11.287Z,20.30
2023-05-19T12:53:42.770Z,20.30
2023-05-19T12:56:15.364Z,20.30
2023-05-19T12:58:45.885Z,20.40
2023-05-19T13:01:18.797Z,20.50
2023-05-19T13:03:47.679Z,20.50
2023-05-19T13:06:16.350Z,20.50
2023-05-19T13:08:48.340Z,20.60
2023-05-19T13:11:19.408Z,20.60
2023-05-19T13:13:48.104Z,20.70
2023-05-19T13:16:16.844Z,20.80
2023-05-19T13:18:56.856Z,20.90
2023-05-19T13:21:25.842Z,20.90
2023-05-19T13:23:56.065Z,20.90
2023-05-19T13:26:24.789Z,20.90
2023-05-19T13:28:53.404Z,21.00
2023-05-19T13:31:22.470Z,21.00
2023-05-19T13:33:51.212Z,21.00
2023-05-19T13:36:19.859Z,20.80
2023-05-19T13:38:48.569Z,20.80
2023-05-19T13:41:18.758Z,20.70
2023-05-19T13:43:47.412Z,20.60
2023-05-19T13:46:16.357Z,20.60
2023-05-19T13:48:45.292Z,20.60
2023-05-19T13:51:14.276Z,20.60
2023-05-19T13:53:43.071Z,20.70
2023-05-19T13:56:11.737Z,20.70
2023-05-19T13:58:41.829Z,20.80
2023-05-19T14:01:10.964Z,20.80
2023-05-19T14:03:39.706Z,20.80
2023-05-19T14:06:09.090Z,20.90
2023-05-19T14:08:37.657Z,21.00
2023-05-19T14:11:06.278Z,21.00
2023-05-19T14:13:38.293Z,21.10
2023-05-19T14:16:11.175Z,21.10
2023-05-19T14:18:39.929Z,21.20
2023-05-19T14:21:08.954Z,21.30
2023-05-19T14:23:37.978Z,21.30
2023-05-19T14:26:06.700Z,21.30
2023-05-19T14:28:35.303Z,21.30
2023-05-19T14:31:04.052Z,21.20
2023-05-19T14:33:35.706Z,21.20
2023-05-19T14:36:05.368Z,21.20
2023-05-19T14:38:33.996Z,21.10
2023-05-19T14:41:02.687Z,21.10
2023-05-19T14:43:31.331Z,21.10
2023-05-19T14:46:00.069Z,21.10
2023-05-19T14:48:28.803Z,21.10
2023-05-19T14:50:58.943Z,21.10
2023-05-19T14:53:27.727Z,21.10
2023-05-19T14:55:56.286Z,21.00
2023-05-19T14:58:28.384Z,20.90
2023-05-19T15:00:59.835Z,20.90
2023-05-19T15:03:30.151Z,20.90
2023-05-19T15:06:00.187Z,20.90
2023-05-19T15:08:28.789Z,21.00
2023-05-19T15:10:57.816Z,21.00
2023-05-19T15:13:26.589Z,21.10
2023-05-19T15:16:08.365Z,21.00
2023-05-19T15:18:44.919Z,21.00
2023-05-19T15:21:14.999Z,20.90
2023-05-19T15:23:43.721Z,20.70
2023-05-19T15:26:12.402Z,20.60
2023-05-19T15:28:40.996Z,20.60
2023-05-19T15:31:09.613Z,20.60
2023-05-19T15:33:38.203Z,20.60
2023-05-19T15:36:07.379Z,20.80
2023-05-19T15:38:37.787Z,20.90
2023-05-19T15:41:08.977Z,20.90
2023-05-19T15:43:37.749Z,20.90
2023-05-19T15:46:06.468Z,21.00
2023-05-19T15:48:35.384Z,21.00
2023-05-19T15:51:04.242Z,21.00
2023-05-19T15:53:32.916Z,21.00
2023-05-19T15:56:04.719Z,21.00
2023-05-19T15:58:33.493Z,20.90
2023-05-19T16:01:02.262Z,21.00
2023-05-19T16:03:31.050Z,21.00
2023-05-19T16:06:00.782Z,20.90
2023-05-19T16:08:29.662Z,20.80
2023-05-19T16:10:58.344Z,20.80
2023-05-19T16:13:30.683Z,20.70
2023-05-19T16:15:59.343Z,20.60
2023-05-19T16:18:29.219Z,20.50
2023-05-19T16:20:58.205Z,20.40
2023-05-19T16:23:27.498Z,20.40
2023-05-19T16:25:57.586Z,20.30
2023-05-19T16:28:26.406Z,20.30
2023-05-19T16:31:00.106Z,20.30
2023-05-19T16:33:29.967Z,20.20
2023-05-19T16:35:59.838Z,20.20
2023-05-19T16:38:28.417Z,20.20
2023-05-19T16:40:57.080Z,20.20
2023-05-19T16:43:26.301Z,20.20
2023-05-19T16:45:54.933Z,20.20
2023-05-19T16:48:25.052Z,20.10
2023-05-19T16:50:53.656Z,20.10
2023-05-19T16:53:22.586Z,20.10
2023-05-19T16:55:51.485Z,20.10
2023-05-19T16:58:20.186Z,20.10
2023-05-19T17:00:52.531Z,20.10
2023-05-19T17:03:21.375Z,20.00
2023-05-19T17:05:52.424Z,20.00
2023-05-19T17:08:21.226Z,19.90
2023-05-19T17:10:49.834Z,19.90
2023-05-19T17:13:18.417Z,19.80
2023-05-19T17:15:47.082Z,19.70
2023-05-19T17:18:16.081Z,19.70
2023-05-19T17:20:44.931Z,19.60
2023-05-19T17:23:15.133Z,19.60
2023-05-19T17:25:44.105Z,19.70
2023-05-19T17:28:13.459Z,19.60
2023-05-19T17:30:42.324Z,19.60
2023-05-19T17:33:11.168Z,19.70
2023-05-19T17:35:41.204Z,19.60
2023-05-19T17:38:10.243Z,19.60
2023-05-19T17:40:41.966Z,19.60
2023-05-19T17:43:10.840Z,19.60
2023-05-19T17:45:39.526Z,19.60
2023-05-19T17:48:08.316Z,19.60
2023-05-19T17:50:36.993Z,19.60
2023-05-19T17:53:06.060Z,19.60
2023-05-19T17:55:35.975Z,19.60
2023-05-19T17:58:06.469Z,19.60
2023-05-19T18:00:35.688Z,19.60
2023-05-19T18:03:06.254Z,19.50
2023-05-19T18:05:35.747Z,19.50
2023-05-19T18:08:09.376Z,19.40
2023-05-19T18:10:39.843Z,19.40
2023-05-19T18:13:16.503Z,19.40
2023-05-19T18:15:45.179Z,19.30
2023-05-19T18:18:13.906Z,19.30
2023-05-19T18:20:44.805Z,19.30
2023-05-19T18:23:13.904Z,19.10
2023-05-19T18:25:42.585Z,19.20
2023-05-19T18:28:12.587Z,19.10
2023-05-19T18:30:41.190Z,19.10
2023-05-19T18:33:10.000Z,19.10
2023-05-19T18:35:38.660Z,19.10
2023-05-19T18:38:07.281Z,19.00
2023-05-19T18:40:36.015Z,19.10
2023-05-19T18:43:04.874Z,19.10
2023-05-19T18:45:34.835Z,19.10
2023-05-19T18:48:03.695Z,19.10
2023-05-19T18:50:32.618Z,19.00
2023-05-19T18:53:01.350Z,19.00
2023-05-19T18:55:30.010Z,18.90
2023-05-19T18:57:58.920Z,18.80
2023-05-19T19:00:28.553Z,18.80
2023-05-19T19:02:58.543Z,18.70
2023-05-19T19:05:27.243Z,18.70
2023-05-19T19:07:55.938Z,18.60
2023-05-19T19:10:24.542Z,18.50
2023-05-19T19:12:53.153Z,18.50
2023-05-19T19:15:21.944Z,18.40
2023-05-19T19:17:50.537Z,18.40
2023-05-19T19:20:20.733Z,18.30
2023-05-19T19:22:49.406Z,18.20
2023-05-19T19:25:18.076Z,18.20
2023-05-19T19:27:46.634Z,18.10
2023-05-19T19:30:15.313Z,18.10
2023-05-19T19:32:44.065Z,18.00
2023-05-19T19:35:12.911Z,17.90
2023-05-19T19:37:42.942Z,17.90
2023-05-19T19:40:12.595Z,17.90
2023-05-19T19:42:41.386Z,17.90
2023-05-19T19:45:12.114Z,17.90
2023-05-19T19:47:42.807Z,17.90
2023-05-19T19:50:12.662Z,17.90
2023-05-19T19:52:42.615Z,17.80
2023-05-19T19:55:11.630Z,17.80
2023-05-19T19:57:40.359Z,17.80
2023-05-19T20:00:10.208Z,17.70
2023-05-19T20:02:55.307Z,17.70
2023-05-19T20:05:28.358Z,17.70
2023-05-19T20:07:58.550Z,17.60
2023-05-19T20:10:27.264Z,17.50
2023-05-19T20:12:55.969Z,17.40
2023-05-19T20:15:24.523Z,17.30
2023-05-19T20:17:53.180Z,17.20
2023-05-19T20:20:21.803Z,17.10
2023-05-19T20:22:50.404Z,16.90
2023-05-19T20:25:20.354Z,16.80
2023-05-19T20:27:48.989Z,16.70
2023-05-19T20:30:17.708Z,16.60
2023-05-19T20:32:46.946Z,16.50
2023-05-19T20:35:15.890Z,16.40
2023-05-19T20:37:44.486Z,16.30
2023-05-19T20:40:13.695Z,16.20
2023-05-19T20:42:43.684Z,16.10
2023-05-19T20:45:12.357Z,16.00
2023-05-19T20:47:40.956Z,15.90
2023-05-19T20:50:09.870Z,15.80
2023-05-19T20:52:38.400Z,15.80
2023-05-19T20:55:07.398Z,15.70
2023-05-19T20:57:36.161Z,15.60
2023-05-19T21:00:07.360Z,15.50
2023-05-19T21:02:36.182Z,15.50
2023-05-19T21:05:05.386Z,15.40
2023-05-19T21:07:34.168Z,15.30
2023-05-19T21:10:02.748Z,15.20
2023-05-19T21:12:34.141Z,15.20
2023-05-19T21:15:03.720Z,15.10
2023-05-19T21:17:34.124Z,15.10
2023-05-19T21:20:03.754Z,15.00
2023-05-19T21:22:32.358Z,14.90
2023-05-19T21:25:01.006Z,14.90
2023-05-19T21:27:29.937Z,14.80
2023-05-19T21:29:58.539Z,14.70
2023-05-19T21:32:27.812Z,14.70
2023-05-19T21:34:57.925Z,14.60
2023-05-19T21:37:26.559Z,14.60
2023-05-19T21:39:55.207Z,14.50
2023-05-19T21:42:23.847Z,14.50
2023-05-19T21:44:52.513Z,14.40
2023-05-19T21:47:21.128Z,14.40
2023-05-19T21:49:49.709Z,14.30
2023-05-19T21:52:19.993Z,14.20
2023-05-19T21:54:48.665Z,14.20
2023-05-19T21:57:17.212Z,14.10
2023-05-19T21:59:45.919Z,14.10
2023-05-19T22:02:14.534Z,14.00
2023-05-19T22:04:43.227Z,14.00
2023-05-19T22:07:11.876Z,14.00
2023-05-19T22:09:42.031Z,13.90
2023-05-19T22:12:10.754Z,13.90
2023-05-19T22:14:39.835Z,13.80
2023-05-19T22:17:08.405Z,13.80
2023-05-19T22:19:37.433Z,13.80
2023-05-19T22:22:13.904Z,13.70
2023-05-19T22:24:44.646Z,13.60
2023-05-19T22:27:13.280Z,13.60
2023-05-19T22:29:41.814Z,13.50
2023-05-19T22:32:12.260Z,13.50
2023-05-19T22:34:41.769Z,13.40
2023-05-19T22:37:10.532Z,13.40
2023-05-19T22:39:39.908Z,13.40
2023-05-19T22:42:09.938Z,13.40
2023-05-19T22:44:38.476Z,13.30
2023-05-19T22:47:13.175Z,13.30
2023-05-19T22:49:42.286Z,13.30
2023-05-19T22:52:12.152Z,13.30
2023-05-19T22:54:40.758Z,13.30
2023-05-19T22:57:11.442Z,13.30
2023-05-19T22:59:41.076Z,13.20
2023-05-19T23:02:09.706Z,13.30
2023-05-19T23:04:38.418Z,13.20
2023-05-19T23:07:07.143Z,13.20
2023-05-19T23:09:35.723Z,13.20
2023-05-19T23:12:04.455Z,13.10
2023-05-19T23:14:34.421Z,13.10
2023-05-19T23:17:03.082Z,13.00
2023-05-19T23:19:33.251Z,13.10
2023-05-19T23:22:02.035Z,13.00
2023-05-19T23:24:30.669Z,13.00
2023-05-19T23:27:00.886Z,13.00
2023-05-19T23:29:29.499Z,12.90
2023-05-19T23:31:59.516Z,12.90
2023-05-19T23:34:28.176Z,12.80
2023-05-19T23:36:56.795Z,12.80
2023-05-19T23:39:26.798Z,12.70
2023-05-19T23:41:56.248Z,12.70
2023-05-19T23:44:26.288Z,12.60
2023-05-19T23:46:55.166Z,12.60
2023-05-19T23:49:25.549Z,12.60
2023-05-19T23:51:54.454Z,12.50
2023-05-19T23:54:23.426Z,12.50
2023-05-19T23:56:52.969Z,12.50
2023-05-19T23:59:21.935Z,12.40
